Time;durP1;ratioP1;P1;durP2;ratioP2;P2;SDS_P1;SDS_P2;PMS_P1;PMS_P2;Temp;Humidity;BMP_temperature;BMP_pressure;BME280_temperature;BME280_humidity;BME280_pressure;Samples;Min_cycle;Max_cycle;Signal;HPM_P1;HPM_P2
2022/08/26 00:01:15;;;;;;;10.75;2.25;;;21.40;99.90;;;;;;5076016;28;20416;-67
2022/08/26 00:03:40;;;;;;;14.40;2.17;;;21.40;99.90;;;;;;5075784;28;20020;-68
2022/08/26 00:06:07;;;;;;;11.30;2.58;;;21.30;99.90;;;;;;5075479;28;20438;-67
2022/08/26 00:08:34;;;;;;;11.80;2.20;;;21.40;99.90;;;;;;5075563;28;20032;-69
2022/08/26 00:11:00;;;;;;;8.35;2.72;;;21.30;99.90;;;;;;5075724;28;20373;-67
2022/08/26 00:13:26;;;;;;;11.05;2.55;;;21.40;99.90;;;;;;5075911;28;20020;-67
2022/08/26 00:15:52;;;;;;;17.42;2.85;;;21.40;99.90;;;;;;5076146;28;20335;-67
2022/08/26 00:18:18;;;;;;;13.45;3.20;;;21.40;99.90;;;;;;5075948;28;20035;-67
2022/08/26 00:20:44;;;;;;;8.18;3.03;;;21.40;99.90;;;;;;5075872;28;20036;-67
2022/08/26 00:23:09;;;;;;;15.63;3.60;;;21.40;99.90;;;;;;5075404;28;20021;-66
2022/08/26 00:25:36;;;;;;;11.60;3.08;;;21.40;99.90;;;;;;5074697;28;20055;-69
2022/08/26 00:28:03;;;;;;;8.32;2.75;;;21.40;99.90;;;;;;5075321;28;20116;-69
2022/08/26 00:30:30;;;;;;;9.00;2.70;;;21.40;99.90;;;;;;5074865;28;20082;-70
2022/08/26 00:32:57;;;;;;;8.57;2.90;;;21.40;99.90;;;;;;5075429;28;20050;-68
2022/08/26 00:35:23;;;;;;;6.45;2.42;;;21.30;99.90;;;;;;5074979;28;20036;-66
2022/08/26 00:37:50;;;;;;;9.85;2.15;;;21.40;99.90;;;;;;5074844;28;20079;-68
2022/08/26 00:40:19;;;;;;;10.02;2.42;;;21.30;99.90;;;;;;5075312;28;20492;-72
2022/08/26 00:42:44;;;;;;;11.10;2.40;;;21.30;99.90;;;;;;5075494;28;20036;-68
2022/08/26 00:45:10;;;;;;;7.05;2.00;;;21.30;99.90;;;;;;5075149;28;20107;-71
2022/08/26 00:47:42;;;;;;;7.30;2.25;;;21.30;99.90;;;;;;5075395;28;20028;-68
2022/08/26 00:50:10;;;;;;;;;;;21.30;99.90;;;;;;5075418;28;20036;-68
2022/08/26 00:52:36;;;;;;;8.40;2.20;;;21.30;99.90;;;;;;5074510;28;19987;-66
2022/08/26 00:55:32;;;;;;;6.97;2.30;;;21.30;99.90;;;;;;5074559;28;20057;-68
2022/08/26 00:57:59;;;;;;;15.45;2.30;;;21.20;99.90;;;;;;5074765;28;20016;-72
2022/08/26 01:00:27;;;;;;;11.57;1.70;;;21.20;99.90;;;;;;5074828;28;20059;-70
2022/08/26 01:02:54;;;;;;;4.72;1.60;;;21.20;99.90;;;;;;5074272;28;20020;-66
2022/08/26 01:05:20;;;;;;;6.43;1.50;;;21.10;99.90;;;;;;5074352;28;20027;-68
2022/08/26 01:07:46;;;;;;;10.05;1.92;;;21.10;99.90;;;;;;5074462;28;20137;-68
2022/08/26 01:10:19;;;;;;;6.72;1.83;;;21.00;99.90;;;;;;5074283;28;20146;-68
2022/08/26 01:12:49;;;;;;;6.25;1.80;;;21.10;99.90;;;;;;5074040;28;20030;-70
2022/08/26 01:15:21;;;;;;;7.97;2.10;;;21.00;99.90;;;;;;5074403;28;20025;-67
2022/08/26 01:17:48;;;;;;;9.10;2.10;;;21.00;99.90;;;;;;5073774;28;20074;-67
2022/08/26 01:20:32;;;;;;;6.47;1.40;;;21.00;99.90;;;;;;5073871;28;20020;-67
2022/08/26 01:23:01;;;;;;;9.77;2.17;;;21.00;99.90;;;;;;5058916;28;20031;-68
2022/08/26 01:25:30;;;;;;;6.22;1.60;;;20.90;99.90;;;;;;5054352;28;20075;-70
2022/08/26 01:27:57;;;;;;;9.32;2.13;;;21.00;99.90;;;;;;5054205;28;20027;-68
2022/08/26 01:30:25;;;;;;;4.38;1.70;;;20.90;99.90;;;;;;5053952;28;20116;-67
2022/08/26 01:32:53;;;;;;;10.27;2.08;;;20.90;99.90;;;;;;5054061;28;20017;-67
2022/08/26 01:35:19;;;;;;;6.55;1.90;;;21.00;99.90;;;;;;5052448;28;20362;-67
2022/08/26 01:37:48;;;;;;;13.10;2.00;;;20.90;99.90;;;;;;5053148;28;20021;-67
2022/08/26 01:40:21;;;;;;;7.18;1.77;;;20.90;99.90;;;;;;5054069;28;20049;-66
2022/08/26 01:42:48;;;;;;;7.97;2.25;;;20.90;99.90;;;;;;5053281;28;20047;-70
2022/08/26 01:45:18;;;;;;;11.40;2.58;;;20.90;99.90;;;;;;5053586;28;20017;-69
2022/08/26 01:47:46;;;;;;;4.38;1.70;;;20.90;99.90;;;;;;5053662;28;20074;-67
2022/08/26 01:50:15;;;;;;;9.13;2.30;;;20.90;99.90;;;;;;5053555;28;20033;-68
2022/08/26 01:52:43;;;;;;;11.80;2.20;;;20.90;99.90;;;;;;5053269;28;20021;-68
2022/08/26 01:55:13;;;;;;;8.68;2.65;;;20.90;99.90;;;;;;5053438;28;20051;-69
2022/08/26 01:57:39;;;;;;;8.25;2.00;;;20.90;99.90;;;;;;5053725;28;20025;-68
2022/08/26 02:00:08;;;;;;;10.85;2.33;;;20.90;99.90;;;;;;5053357;28;20175;-70
2022/08/26 02:02:33;;;;;;;8.60;2.85;;;20.90;99.90;;;;;;5053350;28;20025;-67
2022/08/26 02:05:04;;;;;;;6.95;2.53;;;20.90;99.90;;;;;;5053083;28;20351;-71
2022/08/26 02:07:31;;;;;;;10.02;2.25;;;20.90;99.90;;;;;;5052755;28;20084;-67
2022/08/26 02:09:57;;;;;;;11.52;2.55;;;21.00;99.90;;;;;;5051713;28;20493;-68
2022/08/26 02:12:24;;;;;;;11.43;2.03;;;21.00;99.90;;;;;;5052873;28;20060;-67
2022/08/26 02:14:53;;;;;;;15.27;2.33;;;21.00;99.90;;;;;;5053227;28;20036;-68
2022/08/26 02:17:23;;;;;;;7.40;1.90;;;21.00;99.90;;;;;;5053175;28;20028;-66
2022/08/26 02:19:49;;;;;;;5.18;1.85;;;21.00;99.90;;;;;;5051795;28;20025;-66
2022/08/26 02:22:20;;;;;;;9.57;1.88;;;21.00;99.90;;;;;;5061509;28;20086;-70
2022/08/26 02:24:52;;;;;;;10.10;2.15;;;21.00;99.90;;;;;;5073098;28;20099;-67
2022/08/26 02:27:24;;;;;;;;;;;21.00;99.90;;;;;;5073042;28;20020;-69
2022/08/26 02:29:57;;;;;;;6.32;1.88;;;21.00;99.90;;;;;;5073288;28;19908;-68
2022/08/26 02:32:23;;;;;;;9.13;2.00;;;21.00;99.90;;;;;;5072853;28;20025;-68
2022/08/26 02:34:49;;;;;;;8.85;1.90;;;20.90;99.90;;;;;;5071432;28;20362;-70
2022/08/26 02:37:14;;;;;;;8.52;2.08;;;21.00;99.90;;;;;;5072818;28;20025;-68
2022/08/26 02:39:42;;;;;;;7.82;1.95;;;21.00;99.90;;;;;;5071517;28;20017;-68
2022/08/26 02:42:08;;;;;;;7.13;2.45;;;21.00;99.90;;;;;;5072347;28;20389;-67
2022/08/26 02:44:34;;;;;;;6.85;2.10;;;21.00;99.90;;;;;;5072286;28;20020;-68
2022/08/26 02:47:00;;;;;;;7.88;2.00;;;21.00;99.90;;;;;;5072514;28;20020;-67
2022/08/26 02:49:26;;;;;;;9.77;2.15;;;20.90;99.90;;;;;;5071905;28;20040;-67
2022/08/26 02:51:52;;;;;;;5.65;2.28;;;20.90;99.90;;;;;;5072667;28;20025;-69
2022/08/26 02:54:20;;;;;;;8.40;2.35;;;21.00;99.90;;;;;;5072827;28;20047;-69
2022/08/26 02:56:45;;;;;;;8.38;2.20;;;21.00;99.90;;;;;;5072659;28;20447;-67
2022/08/26 02:59:11;;;;;;;8.35;1.92;;;21.00;99.90;;;;;;5071176;28;20041;-69
2022/08/26 03:01:39;;;;;;;12.88;2.20;;;21.00;99.90;;;;;;5072817;28;20024;-68
2022/08/26 03:04:09;;;;;;;8.13;1.83;;;21.00;99.90;;;;;;5072502;28;20028;-68
2022/08/26 03:06:35;;;;;;;8.05;2.33;;;21.00;99.90;;;;;;5072300;28;20024;-70
2022/08/26 03:09:01;;;;;;;8.13;1.60;;;21.00;99.90;;;;;;5071160;28;20414;-67
2022/08/26 03:11:27;;;;;;;7.30;1.55;;;21.00;99.90;;;;;;5072746;28;20107;-70
2022/08/26 03:13:54;;;;;;;6.18;1.17;;;21.10;99.90;;;;;;5072495;28;20107;-70
2022/08/26 03:16:19;;;;;;;9.25;0.90;;;21.10;99.90;;;;;;5072399;28;20016;-67
2022/08/26 03:18:45;;;;;;;4.47;1.10;;;21.10;99.90;;;;;;5071096;28;20039;-67
2022/08/26 03:21:14;;;;;;;7.60;1.25;;;21.00;99.90;;;;;;5072372;28;20029;-68
2022/08/26 03:23:41;;;;;;;8.82;1.55;;;21.00;99.90;;;;;;5072433;28;20028;-67
2022/08/26 03:26:08;;;;;;;2.80;1.05;;;20.90;99.90;;;;;;5072683;28;20024;-66
2022/08/26 03:28:35;;;;;;;3.53;0.98;;;20.90;99.90;;;;;;5072119;28;20059;-67
2022/08/26 03:31:00;;;;;;;7.38;1.50;;;20.90;99.90;;;;;;5072385;28;20040;-67
2022/08/26 03:33:26;;;;;;;6.25;1.27;;;20.90;99.90;;;;;;5071903;28;20438;-67
2022/08/26 03:35:52;;;;;;;5.97;1.20;;;20.80;99.90;;;;;;5072340;28;20033;-67
2022/08/26 03:38:20;;;;;;;5.20;1.52;;;20.80;99.90;;;;;;5072072;28;20027;-67
2022/08/26 03:40:46;;;;;;;4.45;1.20;;;20.80;99.90;;;;;;5072541;28;20081;-67
2022/08/26 03:43:14;;;;;;;10.52;1.40;;;20.80;99.90;;;;;;5072108;28;20012;-71
2022/08/26 03:45:40;;;;;;;5.50;1.30;;;20.80;99.90;;;;;;5071777;28;20377;-68
2022/08/26 03:48:06;;;;;;;8.93;1.38;;;20.80;99.90;;;;;;5070910;28;20034;-69
2022/08/26 03:50:32;;;;;;;5.60;1.50;;;20.80;99.90;;;;;;5070688;28;20033;-68
2022/08/26 03:52:58;;;;;;;7.18;1.30;;;20.80;99.90;;;;;;5071983;28;20020;-69
2022/08/26 03:55:25;;;;;;;6.68;1.40;;;20.80;99.90;;;;;;5072409;28;20033;-71
2022/08/26 03:57:51;;;;;;;4.75;1.20;;;20.80;99.90;;;;;;5071889;28;20056;-67
2022/08/26 04:00:18;;;;;;;6.55;1.30;;;20.90;99.90;;;;;;5071684;28;20441;-67
2022/08/26 04:02:44;;;;;;;10.57;2.00;;;20.90;99.90;;;;;;5075110;28;20024;-68
2022/08/26 04:05:12;;;;;;;6.20;1.58;;;20.90;99.90;;;;;;5075619;28;20024;-70
2022/08/26 04:07:39;;;;;;;4.68;1.65;;;20.90;99.90;;;;;;5075548;28;20021;-67
2022/08/26 04:10:06;;;;;;;5.85;1.50;;;20.90;99.90;;;;;;5075636;28;20028;-67
2022/08/26 04:12:32;;;;;;;8.50;1.77;;;21.00;99.90;;;;;;5075470;28;20028;-68
2022/08/26 04:14:58;;;;;;;9.18;1.75;;;21.00;99.90;;;;;;5074989;28;20024;-67
2022/08/26 04:17:25;;;;;;;6.38;1.30;;;21.00;99.90;;;;;;5075467;28;20024;-68
2022/08/26 04:19:52;;;;;;;6.97;1.73;;;21.10;99.90;;;;;;5075173;28;20039;-68
2022/08/26 04:22:18;;;;;;;7.78;1.40;;;21.00;99.90;;;;;;5075423;28;20031;-67
2022/08/26 04:24:45;;;;;;;6.88;1.33;;;21.10;99.90;;;;;;5074988;28;20032;-68
2022/08/26 04:27:10;;;;;;;8.85;1.50;;;21.00;99.90;;;;;;5074993;28;20032;-66
2022/08/26 04:29:37;;;;;;;6.97;1.40;;;21.00;99.90;;;;;;5074957;28;20032;-70
2022/08/26 04:32:03;;;;;;;6.75;1.10;;;21.00;99.90;;;;;;5075110;28;20021;-67
2022/08/26 04:34:29;;;;;;;7.88;1.50;;;20.90;99.90;;;;;;5075043;28;20024;-67
2022/08/26 04:36:55;;;;;;;9.20;1.45;;;20.80;99.90;;;;;;5073445;28;20025;-66
2022/08/26 04:39:20;;;;;;;9.80;2.92;;;20.70;99.90;;;;;;5075260;28;20047;-68
2022/08/26 04:41:47;;;;;;;9.25;1.80;;;20.70;99.90;;;;;;5074239;28;20459;-66
2022/08/26 04:44:13;;;;;;;8.75;1.92;;;20.60;99.90;;;;;;5074925;28;20520;-67
2022/08/26 04:46:39;;;;;;;10.52;2.20;;;20.70;99.90;;;;;;5074789;28;20035;-68
2022/08/26 04:49:07;;;;;;;9.07;2.28;;;20.70;99.90;;;;;;5073367;28;20375;-67
2022/08/26 04:51:34;;;;;;;11.13;2.10;;;20.60;99.90;;;;;;5074863;28;20465;-67
2022/08/26 04:54:00;;;;;;;11.65;2.40;;;20.70;99.90;;;;;;5075209;28;20024;-67
2022/08/26 04:56:32;;;;;;;14.90;2.60;;;20.70;99.90;;;;;;5074248;28;20689;-68
2022/08/26 04:58:59;;;;;;;8.18;1.90;;;20.70;99.90;;;;;;5074518;28;20023;-68
2022/08/26 05:01:24;;;;;;;10.25;1.60;;;20.80;99.90;;;;;;5074506;28;20104;-67
2022/08/26 05:03:50;;;;;;;9.43;2.15;;;20.80;99.90;;;;;;5074854;28;20050;-67
2022/08/26 05:06:16;;;;;;;6.38;1.40;;;20.80;99.90;;;;;;5073489;28;20021;-67
2022/08/26 05:08:41;;;;;;;12.07;2.17;;;20.80;99.90;;;;;;5073138;28;20048;-67
2022/08/26 05:11:08;;;;;;;5.53;2.13;;;20.80;99.90;;;;;;5074517;28;20040;-66
2022/08/26 05:13:34;;;;;;;9.38;2.03;;;20.70;99.90;;;;;;5074531;28;20029;-67
2022/08/26 05:16:05;;;;;;;9.50;2.00;;;20.70;99.90;;;;;;5074420;28;20017;-68
2022/08/26 05:18:32;;;;;;;8.87;2.00;;;20.70;99.90;;;;;;5074380;28;20052;-68
2022/08/26 05:20:59;;;;;;;10.40;1.80;;;20.80;99.90;;;;;;5074409;28;20358;-67
2022/08/26 05:23:25;;;;;;;9.48;1.85;;;20.80;99.90;;;;;;5054931;28;20047;-66
2022/08/26 05:25:53;;;;;;;11.27;1.77;;;20.80;99.90;;;;;;5052859;28;20029;-69
2022/08/26 05:28:20;;;;;;;7.70;1.83;;;20.80;99.90;;;;;;5052900;28;20381;-67
2022/08/26 05:30:47;;;;;;;10.18;1.67;;;20.80;99.90;;;;;;5054011;28;20028;-68
2022/08/26 05:33:12;;;;;;;6.30;1.52;;;20.80;99.90;;;;;;5053686;28;20013;-68
2022/08/26 05:35:38;;;;;;;6.63;1.52;;;20.80;99.90;;;;;;5054101;28;20029;-69
2022/08/26 05:38:07;;;;;;;7.72;1.98;;;20.80;99.90;;;;;;5053930;28;20021;-67
2022/08/26 05:40:35;;;;;;;5.55;1.63;;;20.90;99.90;;;;;;5054147;28;20020;-67
2022/08/26 05:43:00;;;;;;;9.85;2.22;;;20.90;99.90;;;;;;5053623;28;20082;-67
2022/08/26 05:45:26;;;;;;;7.82;1.48;;;20.90;99.90;;;;;;5054121;28;20025;-70
2022/08/26 05:47:52;;;;;;;6.25;1.40;;;20.90;99.90;;;;;;5053911;28;20415;-67
2022/08/26 05:50:20;;;;;;;8.48;1.88;;;20.90;99.90;;;;;;5053647;28;20031;-67
2022/08/26 05:52:48;;;;;;;8.45;2.03;;;20.90;99.90;;;;;;5053700;28;20108;-67
2022/08/26 05:55:13;;;;;;;5.43;1.58;;;20.90;99.90;;;;;;5053613;28;20447;-67
2022/08/26 05:57:39;;;;;;;8.85;1.73;;;21.00;99.90;;;;;;5053531;28;20024;-67
2022/08/26 06:00:05;;;;;;;6.43;1.42;;;21.00;99.90;;;;;;5053445;28;20459;-67
2022/08/26 06:02:31;;;;;;;9.32;1.45;;;21.00;99.90;;;;;;5052147;28;20024;-67
2022/08/26 06:04:56;;;;;;;7.43;1.98;;;21.10;99.90;;;;;;5053384;28;20024;-67
2022/08/26 06:08:09;;;;;;;7.32;1.42;;;21.10;99.90;;;;;;5061689;28;20065;-66
2022/08/26 06:10:12;;;;;;;7.53;1.60;;;21.10;99.90;;;;;;5072726;28;20040;-69
2022/08/26 06:12:38;;;;;;;7.53;1.52;;;21.10;99.90;;;;;;5072275;28;20016;-66
2022/08/26 06:15:04;;;;;;;7.88;1.40;;;21.20;99.90;;;;;;5071959;28;20032;-68
2022/08/26 06:17:30;;;;;;;8.05;1.58;;;21.10;99.90;;;;;;5071830;28;20025;-66
2022/08/26 06:19:55;;;;;;;4.75;1.15;;;21.20;99.90;;;;;;5071810;28;20016;-69
2022/08/26 06:27:50;;;;;;;11.07;2.00;;;21.10;99.90;;;;;;5070432;28;20153;-67
2022/08/26 06:30:15;;;;;;;10.73;2.15;;;21.10;99.90;;;;;;5071573;28;20155;-67
2022/08/26 06:32:41;;;;;;;5.78;1.60;;;21.10;99.90;;;;;;5071757;28;20031;-67
2022/08/26 06:35:07;;;;;;;10.05;1.55;;;21.10;99.90;;;;;;5069652;28;20025;-66
2022/08/26 06:37:32;;;;;;;8.23;1.55;;;21.20;99.90;;;;;;5072405;28;20017;-68
2022/08/26 06:39:58;;;;;;;9.25;1.67;;;21.30;99.90;;;;;;5073329;28;20032;-67
2022/08/26 06:42:23;;;;;;;7.35;1.88;;;21.40;99.90;;;;;;5072546;28;20024;-68
2022/08/26 06:44:49;;;;;;;6.80;1.60;;;21.40;99.90;;;;;;5073623;28;20029;-67
2022/08/26 06:47:14;;;;;;;6.53;1.58;;;21.40;99.90;;;;;;5073757;28;20465;-67
2022/08/26 06:49:40;;;;;;;11.00;1.90;;;21.30;99.90;;;;;;5074375;28;20039;-69
2022/08/26 06:52:06;;;;;;;15.77;1.65;;;21.30;99.90;;;;;;5074930;28;20027;-70
2022/08/26 06:54:31;;;;;;;4.32;1.25;;;21.30;99.90;;;;;;5073970;28;20040;-70
2022/08/26 06:56:57;;;;;;;4.43;1.10;;;21.30;99.90;;;;;;5073074;28;20413;-67
2022/08/26 06:59:23;;;;;;;6.35;1.80;;;21.30;99.90;;;;;;5072476;28;20072;-69
2022/08/26 07:01:49;;;;;;;10.13;2.20;;;21.30;99.90;;;;;;5073680;28;20054;-69
2022/08/26 07:04:15;;;;;;;12.38;2.47;;;21.20;99.90;;;;;;5071285;28;20508;-68
2022/08/26 07:06:45;;;;;;;13.05;3.08;;;21.20;99.90;;;;;;5071901;28;20024;-67
2022/08/26 07:09:11;;;;;;;18.33;4.57;;;21.30;99.90;;;;;;5070460;28;20469;-67
2022/08/26 07:11:38;;;;;;;14.52;3.22;;;21.30;99.90;;;;;;5072339;28;20021;-67
2022/08/26 07:14:04;;;;;;;13.38;3.22;;;21.40;99.90;;;;;;5071594;28;20446;-68
2022/08/26 07:16:30;;;;;;;5.13;2.00;;;21.40;99.90;;;;;;5072536;28;20028;-69
2022/08/26 07:18:56;;;;;;;12.60;1.98;;;21.50;99.90;;;;;;5072533;28;20119;-69
2022/08/26 07:21:23;;;;;;;7.03;1.55;;;21.50;99.90;;;;;;5073248;28;20052;-70
2022/08/26 07:23:49;;;;;;;9.10;1.10;;;21.50;99.90;;;;;;5074389;28;20021;-66
2022/08/26 07:26:18;;;;;;;6.40;1.13;;;21.30;99.90;;;;;;5074880;28;20028;-66
2022/08/26 07:28:47;;;;;;;3.45;1.05;;;21.20;99.90;;;;;;5074940;28;20067;-68
2022/08/26 07:31:14;;;;;;;7.10;1.02;;;21.10;99.90;;;;;;5074507;28;20104;-71
2022/08/26 07:33:40;;;;;;;9.40;1.00;;;21.10;99.90;;;;;;5074989;28;20511;-67
2022/08/26 07:36:07;;;;;;;3.80;0.90;;;21.10;99.90;;;;;;5072835;28;20024;-68
2022/08/26 07:38:34;;;;;;;8.68;0.73;;;21.10;99.90;;;;;;5076828;28;20027;-67
2022/08/26 07:41:04;;;;;;;4.50;0.82;;;21.10;99.90;;;;;;5076520;28;20035;-66
2022/08/26 07:43:30;;;;;;;3.78;0.60;;;21.10;99.90;;;;;;5075107;28;20016;-66
2022/08/26 07:45:56;;;;;;;4.93;0.98;;;21.10;99.90;;;;;;5076235;28;20029;-70
2022/08/26 07:48:22;;;;;;;4.82;1.00;;;21.00;99.90;;;;;;5077730;28;20035;-68
2022/08/26 07:50:48;;;;;;;1.95;0.68;;;21.10;99.90;;;;;;5076028;28;20036;-68
2022/08/26 07:53:14;;;;;;;4.97;1.10;;;21.10;99.90;;;;;;5075934;28;20365;-67
2022/08/26 07:55:40;;;;;;;5.88;1.10;;;21.10;99.90;;;;;;5076592;28;20035;-67
2022/08/26 07:58:06;;;;;;;2.33;0.68;;;21.20;99.90;;;;;;5072616;28;20020;-69
2022/08/26 08:00:32;;;;;;;4.10;1.27;;;21.30;99.90;;;;;;5077109;28;20443;-67
2022/08/26 08:02:59;;;;;;;4.40;0.93;;;21.40;99.90;;;;;;5075181;28;20033;-70
2022/08/26 08:05:25;;;;;;;6.00;1.30;;;21.60;99.90;;;;;;5075983;28;20017;-67
2022/08/26 08:07:51;;;;;;;6.03;1.05;;;21.70;99.90;;;;;;5075264;28;20028;-69
2022/08/26 08:10:20;;;;;;;3.10;0.80;;;21.90;99.90;;;;;;5075116;28;20386;-69
2022/08/26 08:12:46;;;;;;;2.78;1.02;;;22.10;99.90;;;;;;5075638;28;20016;-73
2022/08/26 08:15:12;;;;;;;5.35;1.10;;;22.40;99.90;;;;;;5055984;28;20047;-67
2022/08/26 08:17:42;;;;;;;3.70;0.80;;;22.50;99.90;;;;;;5065133;28;20024;-70
2022/08/26 08:20:09;;;;;;;5.15;0.95;;;22.70;99.90;;;;;;5071684;28;20021;-66
2022/08/26 08:22:35;;;;;;;4.13;1.08;;;22.80;99.90;;;;;;5073783;28;20025;-67
2022/08/26 08:25:00;;;;;;;6.22;1.30;;;22.90;99.90;;;;;;5073838;28;20013;-67
2022/08/26 08:27:26;;;;;;;5.13;0.73;;;23.00;99.90;;;;;;5073745;28;20067;-68
2022/08/26 08:29:55;;;;;;;2.55;0.70;;;23.10;99.90;;;;;;5073765;28;20395;-66
2022/08/26 08:32:21;;;;;;;5.18;1.00;;;23.20;99.90;;;;;;5072651;28;20088;-72
2022/08/26 08:34:47;;;;;;;7.07;0.90;;;23.40;99.90;;;;;;5074921;28;20163;-66
2022/08/26 08:37:12;;;;;;;3.53;0.80;;;23.50;99.90;;;;;;5073297;28;20148;-66
2022/08/26 08:39:38;;;;;;;3.80;1.10;;;23.70;99.90;;;;;;5075007;28;20075;-67
2022/08/26 08:42:35;;;;;;;6.78;1.15;;;23.70;99.90;;;;;;5074516;28;20048;-66
2022/08/26 08:45:07;;;;;;;3.72;1.02;;;23.70;99.90;;;;;;5074584;28;20438;-66
2022/08/26 08:47:55;;;;;;;3.17;1.08;;;23.70;99.90;;;;;;5073348;28;20021;-67
2022/08/26 08:50:29;;;;;;;2.38;1.17;;;23.50;99.90;;;;;;5074799;28;20056;-67
2022/08/26 08:53:09;;;;;;;6.63;1.02;;;23.40;99.90;;;;;;5074692;28;20035;-67
2022/08/26 08:55:47;;;;;;;6.43;1.13;;;23.10;99.90;;;;;;5074788;28;20454;-67
2022/08/26 08:58:16;;;;;;;7.40;1.30;;;22.80;99.90;;;;;;5074296;28;20060;-69
2022/08/26 09:00:58;;;;;;;5.65;1.30;;;22.80;99.90;;;;;;5074408;28;20037;-69
2022/08/26 09:03:44;;;;;;;5.85;1.45;;;22.70;99.90;;;;;;5074584;28;20422;-68
2022/08/26 09:06:15;;;;;;;8.07;1.30;;;22.70;99.90;;;;;;5074761;28;20519;-66
2022/08/26 09:08:43;;;;;;;6.68;1.70;;;22.60;99.90;;;;;;5074099;28;20103;-67
2022/08/26 09:11:09;;;;;;;3.55;1.00;;;22.50;99.90;;;;;;5074419;28;20032;-67
2022/08/26 09:13:37;;;;;;;6.03;1.67;;;22.50;99.90;;;;;;5051782;28;20017;-68
2022/08/26 09:16:08;;;;;;;5.38;1.48;;;22.60;99.90;;;;;;5074493;28;20027;-68
2022/08/26 09:18:55;;;;;;;9.27;1.50;;;22.70;99.90;;;;;;5074371;28;20024;-68
2022/08/26 09:21:23;;;;;;;8.68;1.85;;;22.70;99.90;;;;;;5074435;28;20249;-65
2022/08/26 09:23:49;;;;;;;9.85;1.48;;;22.70;99.90;;;;;;5060139;28;20103;-66
2022/08/26 09:26:24;;;;;;;8.20;1.50;;;22.80;99.90;;;;;;5068475;28;20374;-68
2022/08/26 09:29:21;;;;;;;4.75;1.67;;;22.80;99.90;;;;;;5071654;28;20028;-70
2022/08/26 09:31:46;;;;;;;7.38;1.00;;;23.00;99.90;;;;;;5073235;28;20032;-66
2022/08/26 09:34:23;;;;;;;7.00;1.88;;;23.10;99.90;;;;;;5074250;28;20053;-67
2022/08/26 09:36:50;;;;;;;8.35;1.45;;;23.20;99.90;;;;;;5072780;28;20026;-69
2022/08/26 09:39:36;;;;;;;6.72;1.63;;;23.20;99.90;;;;;;5073740;28;20012;-66
2022/08/26 09:42:10;;;;;;;8.93;1.40;;;23.20;99.90;;;;;;5074124;28;20029;-67
2022/08/26 09:44:54;;;;;;;5.60;1.58;;;23.10;99.90;;;;;;5074163;28;20016;-68
2022/08/26 09:47:35;;;;;;;7.53;1.77;;;23.10;99.90;;;;;;5074162;28;20024;-68
2022/08/26 09:50:08;;;;;;;4.07;1.17;;;23.00;99.90;;;;;;5073674;28;20070;-66
2022/08/26 09:52:33;;;;;;;3.38;1.23;;;23.00;99.90;;;;;;5072578;28;20055;-66
2022/08/26 09:55:11;;;;;;;9.88;2.03;;;23.10;99.90;;;;;;5073862;28;20447;-66
2022/08/26 09:57:57;;;;;;;9.40;2.15;;;23.30;99.90;;;;;;5058548;28;20059;-66
2022/08/26 10:00:38;;;;;;;7.60;1.40;;;23.50;99.90;;;;;;5052318;28;20072;-67
2022/08/26 10:03:09;;;;;;;6.13;1.10;;;23.70;99.90;;;;;;5061619;28;20094;-66
2022/08/26 10:05:54;;;;;;;10.20;1.80;;;23.90;99.90;;;;;;5073724;28;20020;-66
2022/08/26 10:08:20;;;;;;;7.80;1.40;;;24.20;99.90;;;;;;5073294;28;20029;-68
2022/08/26 10:10:46;;;;;;;5.03;1.45;;;24.70;99.90;;;;;;5071951;28;20044;-68
2022/08/26 10:13:15;;;;;;;5.50;1.50;;;25.10;99.20;;;;;;5073081;28;20024;-70
2022/08/26 10:16:27;;;;;;;5.03;1.48;;;25.20;98.70;;;;;;5072923;28;20016;-66
2022/08/26 10:19:15;;;;;;;8.35;1.52;;;25.10;98.80;;;;;;5070895;28;20036;-66
2022/08/26 10:21:49;;;;;;;9.10;1.42;;;25.10;98.10;;;;;;5073125;28;20028;-68
2022/08/26 10:24:30;;;;;;;5.07;1.40;;;24.90;98.40;;;;;;5073117;28;20024;-72
2022/08/26 10:27:12;;;;;;;7.88;1.55;;;24.80;98.70;;;;;;5073087;28;20512;-69
2022/08/26 10:29:42;;;;;;;3.97;1.20;;;24.50;99.20;;;;;;5073034;28;20028;-67
2022/08/26 10:32:15;;;;;;;6.05;1.40;;;24.40;99.60;;;;;;5053960;28;20052;-68
2022/08/26 10:34:41;;;;;;;8.82;2.03;;;24.40;99.60;;;;;;5053159;28;20459;-68
2022/08/26 10:37:14;;;;;;;5.65;1.50;;;24.40;99.50;;;;;;5052970;28;20029;-67
2022/08/26 10:40:25;;;;;;;6.63;1.73;;;24.50;99.40;;;;;;5053174;28;20019;-67
2022/08/26 10:43:02;;;;;;;4.97;1.77;;;24.60;99.10;;;;;;5015131;28;20076;-67
2022/08/26 10:45:31;;;;;;;6.80;1.52;;;24.60;99.20;;;;;;5070000;28;20119;-68
2022/08/26 10:48:08;;;;;;;4.57;1.50;;;24.70;99.20;;;;;;5072737;28;20017;-69
2022/08/26 10:50:40;;;;;;;3.22;1.10;;;24.90;98.60;;;;;;5072652;28;20048;-67
2022/08/26 10:53:35;;;;;;;5.50;1.73;;;25.30;98.30;;;;;;5071462;28;20046;-68
2022/08/26 10:56:17;;;;;;;5.07;1.60;;;25.80;97.60;;;;;;5072648;28;20021;-67
2022/08/26 10:59:05;;;;;;;6.20;1.20;;;26.30;96.80;;;;;;5070985;28;20347;-67
2022/08/26 11:01:44;;;;;;;6.80;2.00;;;26.70;95.90;;;;;;5072628;28;20645;-67
2022/08/26 11:04:34;;;;;;;6.88;2.03;;;26.90;95.90;;;;;;5073157;28;20032;-67
2022/08/26 11:07:32;;;;;;;5.80;2.05;;;26.90;95.60;;;;;;5072727;28;20466;-67
2022/08/26 11:09:59;;;;;;;8.50;1.95;;;26.80;95.80;;;;;;5071790;28;20055;-71
2022/08/26 11:12:37;;;;;;;6.10;1.73;;;27.00;95.40;;;;;;5076893;28;20023;-67
2022/08/26 11:15:13;;;;;;;7.57;1.92;;;27.10;95.40;;;;;;5068839;28;20185;-66
2022/08/26 11:17:44;;;;;;;7.35;2.17;;;27.40;95.10;;;;;;5066608;28;20043;-67
2022/08/26 11:20:22;;;;;;;;;;;27.90;94.30;;;;;;5076675;28;20029;-67
2022/08/26 11:22:49;;;;;;;7.85;1.70;;;28.10;93.80;;;;;;5076460;28;19901;-71
2022/08/26 11:25:17;;;;;;;7.53;2.10;;;28.10;93.50;;;;;;5076627;28;20052;-69
2022/08/26 11:27:51;;;;;;;3.85;1.38;;;27.90;93.40;;;;;;5076536;28;20103;-70
2022/08/26 11:30:18;;;;;;;6.35;1.58;;;27.80;93.50;;;;;;5073888;28;20462;-68
2022/08/26 11:32:51;;;;;;;5.57;1.40;;;27.60;93.60;;;;;;5075750;28;20048;-69
2022/08/26 11:35:18;;;;;;;5.90;1.60;;;27.60;94.00;;;;;;5074214;28;20029;-68
2022/08/26 11:37:59;;;;;;;4.60;1.30;;;27.80;93.50;;;;;;5076423;28;20027;-67
2022/08/26 11:40:37;;;;;;;9.02;2.05;;;27.90;93.30;;;;;;5076210;28;20039;-68
2022/08/26 11:43:21;;;;;;;4.88;1.48;;;27.90;93.20;;;;;;5076045;28;20028;-68
2022/08/26 11:46:01;;;;;;;6.90;1.60;;;27.90;93.20;;;;;;5075659;28;20020;-69
2022/08/26 11:48:39;;;;;;;5.72;1.77;;;27.90;93.10;;;;;;5074822;28;20450;-69
2022/08/26 11:51:09;;;;;;;4.28;1.60;;;27.90;93.10;;;;;;5075844;28;20066;-69
2022/08/26 11:53:38;;;;;;;4.10;1.48;;;27.70;93.40;;;;;;5075995;28;20016;-68
2022/08/26 11:56:24;;;;;;;6.13;1.80;;;27.60;93.20;;;;;;5076227;28;20025;-69
2022/08/26 11:58:54;;;;;;;6.72;1.55;;;27.50;93.50;;;;;;5068410;28;20028;-68
2022/08/26 12:01:34;;;;;;;6.05;1.20;;;27.50;93.40;;;;;;5075443;28;20051;-70
2022/08/26 12:04:01;;;;;;;5.40;1.45;;;27.60;93.20;;;;;;5076124;28;20070;-68
2022/08/26 12:06:31;;;;;;;5.97;1.10;;;27.50;93.40;;;;;;5076055;28;20078;-68
2022/08/26 12:09:01;;;;;;;5.50;1.15;;;27.10;93.30;;;;;;5074249;28;20025;-67
2022/08/26 12:11:30;;;;;;;6.10;1.33;;;26.80;93.70;;;;;;5074540;28;20025;-67
2022/08/26 12:14:00;;;;;;;5.15;1.17;;;26.40;94.20;;;;;;5074136;28;20512;-68
2022/08/26 12:16:28;;;;;;;4.47;1.23;;;25.90;94.70;;;;;;5075560;28;20020;-69
2022/08/26 12:18:54;;;;;;;5.43;1.33;;;25.60;95.00;;;;;;5075489;28;20522;-69
2022/08/26 12:21:30;;;;;;;7.50;1.42;;;25.50;95.40;;;;;;5075304;28;20020;-67
2022/08/26 12:23:58;;;;;;;4.80;1.20;;;25.40;95.50;;;;;;5074851;28;20020;-67
2022/08/26 12:26:26;;;;;;;5.65;1.45;;;25.50;95.50;;;;;;5074916;28;20032;-68
2022/08/26 12:29:01;;;;;;;9.45;1.13;;;25.60;95.20;;;;;;5075195;28;20149;-67
2022/08/26 12:31:32;;;;;;;8.95;1.70;;;25.90;95.00;;;;;;5075433;28;20025;-68
2022/08/26 12:33:59;;;;;;;;;;;26.00;94.70;;;;;;5075714;28;20039;-67
2022/08/26 12:36:39;;;;;;;3.38;0.90;;;26.10;94.70;;;;;;5075018;28;19946;-69
2022/08/26 12:39:24;;;;;;;5.50;1.13;;;26.30;94.40;;;;;;5074930;28;20024;-66
2022/08/26 12:41:55;;;;;;;6.38;1.20;;;26.70;93.90;;;;;;5054936;28;20029;-68
2022/08/26 12:44:40;;;;;;;6.30;1.60;;;27.20;93.30;;;;;;5055285;28;20017;-67
2022/08/26 12:47:24;;;;;;;6.50;0.95;;;27.80;92.70;;;;;;5053654;28;20033;-67
2022/08/26 12:50:03;;;;;;;4.22;1.00;;;28.20;92.10;;;;;;5054538;28;20472;-70
2022/08/26 12:52:33;;;;;;;4.20;1.00;;;28.40;91.70;;;;;;5055092;28;20021;-70
2022/08/26 12:55:03;;;;;;;6.03;1.52;;;28.30;91.40;;;;;;5055077;28;20211;-67
2022/08/26 12:57:33;;;;;;;7.85;1.60;;;28.20;91.60;;;;;;5054798;28;20023;-67
2022/08/26 13:00:28;;;;;;;7.10;1.67;;;28.30;91.50;;;;;;5054846;28;20079;-68
2022/08/26 13:03:03;;;;;;;5.85;1.88;;;28.50;91.00;;;;;;5054196;28;20024;-70
2022/08/26 13:05:32;;;;;;;9.57;1.95;;;28.60;90.90;;;;;;5059044;28;20021;-67